sensor_id;sensor_type;location;lat;lon;timestamp;pressure;altitude;pressure_sealevel;temperature;humidity
34031;BME280;20319;28.466;-16.274;2022-07-23T00:00:10;99951.47;;;28.22;61.03
34031;BME280;20319;28.466;-16.274;2022-07-23T00:02:36;99886.25;;;28.01;61.15
34031;BME280;20319;28.466;-16.274;2022-07-23T00:05:02;99887.31;;;27.95;61.43
34031;BME280;20319;28.466;-16.274;2022-07-23T00:07:28;99931.91;;;27.92;61.52
34031;BME280;20319;28.466;-16.274;2022-07-23T00:09:54;99903.22;;;27.88;61.70
34031;BME280;20319;28.466;-16.274;2022-07-23T00:12:20;99879.56;;;27.60;62.25
34031;BME280;20319;28.466;-16.274;2022-07-23T00:14:46;99930.25;;;27.59;62.66
34031;BME280;20319;28.466;-16.274;2022-07-23T00:17:12;99899.06;;;27.53;62.83
34031;BME280;20319;28.466;-16.274;2022-07-23T00:19:37;99891.34;;;27.50;62.70
34031;BME280;20319;28.466;-16.274;2022-07-23T00:22:03;99927.78;;;27.58;63.24
34031;BME280;20319;28.466;-16.274;2022-07-23T00:24:29;99919.19;;;27.54;63.21
34031;BME280;20319;28.466;-16.274;2022-07-23T00:26:54;99895.78;;;27.51;63.29
34031;BME280;20319;28.466;-16.274;2022-07-23T00:29:20;99928.34;;;27.60;63.32
34031;BME280;20319;28.466;-16.274;2022-07-23T00:31:45;99907.97;;;27.61;63.42
34031;BME280;20319;28.466;-16.274;2022-07-23T00:34:11;99889.78;;;27.60;63.98
34031;BME280;20319;28.466;-16.274;2022-07-23T00:36:37;99931.63;;;27.57;64.31
34031;BME280;20319;28.466;-16.274;2022-07-23T00:39:03;99885.81;;;27.50;64.00
34031;BME280;20319;28.466;-16.274;2022-07-23T00:41:29;99902.09;;;27.52;64.31
34031;BME280;20319;28.466;-16.274;2022-07-23T00:43:54;99900.44;;;27.51;64.42
34031;BME280;20319;28.466;-16.274;2022-07-23T00:46:21;99878.09;;;27.47;64.63
34031;BME280;20319;28.466;-16.274;2022-07-23T00:48:47;99883.81;;;27.41;64.75
34031;BME280;20319;28.466;-16.274;2022-07-23T00:51:15;99867.59;;;27.44;65.05
34031;BME280;20319;28.466;-16.274;2022-07-23T00:53:41;99868.66;;;27.38;64.98
34031;BME280;20319;28.466;-16.274;2022-07-23T00:56:07;99862.00;;;27.34;65.14
34031;BME280;20319;28.466;-16.274;2022-07-23T00:58:35;99855.38;;;27.30;65.26
34031;BME280;20319;28.466;-16.274;2022-07-23T01:01:01;99862.53;;;27.31;65.49
34031;BME280;20319;28.466;-16.274;2022-07-23T01:03:27;99824.16;;;27.20;65.76
34031;BME280;20319;28.466;-16.274;2022-07-23T01:05:56;99800.84;;;27.01;66.41
34031;BME280;20319;28.466;-16.274;2022-07-23T01:08:23;99791.75;;;27.00;66.72
34031;BME280;20319;28.466;-16.274;2022-07-23T01:10:48;99773.75;;;26.88;66.41
34031;BME280;20319;28.466;-16.274;2022-07-23T01:13:16;99781.31;;;27.02;66.65
34031;BME280;20319;28.466;-16.274;2022-07-23T01:15:42;99764.88;;;27.12;66.34
34031;BME280;20319;28.466;-16.274;2022-07-23T01:18:08;99767.41;;;27.19;66.25
34031;BME280;20319;28.466;-16.274;2022-07-23T01:20:34;99776.06;;;27.27;65.84
34031;BME280;20319;28.466;-16.274;2022-07-23T01:23:00;99765.03;;;27.27;65.34
34031;BME280;20319;28.466;-16.274;2022-07-23T01:25:26;99778.91;;;27.42;64.99
34031;BME280;20319;28.466;-16.274;2022-07-23T01:27:53;99790.84;;;27.53;64.55
34031;BME280;20319;28.466;-16.274;2022-07-23T01:30:19;99786.13;;;27.53;64.63
34031;BME280;20319;28.466;-16.274;2022-07-23T01:32:45;99799.41;;;27.62;64.35
34031;BME280;20319;28.466;-16.274;2022-07-23T01:35:11;99780.66;;;27.58;64.33
34031;BME280;20319;28.466;-16.274;2022-07-23T01:37:37;99780.22;;;27.72;64.40
34031;BME280;20319;28.466;-16.274;2022-07-23T01:40:04;99760.06;;;27.71;64.17
34031;BME280;20319;28.466;-16.274;2022-07-23T01:42:30;99754.56;;;27.71;64.00
34031;BME280;20319;28.466;-16.274;2022-07-23T01:44:56;99742.97;;;27.64;64.26
34031;BME280;20319;28.466;-16.274;2022-07-23T01:47:22;99740.19;;;27.59;64.55
34031;BME280;20319;28.466;-16.274;2022-07-23T01:49:47;99746.31;;;27.66;64.63
34031;BME280;20319;28.466;-16.274;2022-07-23T01:52:13;99718.72;;;27.61;64.39
34031;BME280;20319;28.466;-16.274;2022-07-23T01:54:39;99707.09;;;27.54;64.92
34031;BME280;20319;28.466;-16.274;2022-07-23T01:57:08;99685.34;;;27.52;64.78
34031;BME280;20319;28.466;-16.274;2022-07-23T01:59:34;99678.72;;;27.53;64.87
34031;BME280;20319;28.466;-16.274;2022-07-23T02:02:00;99691.16;;;27.56;64.66
34031;BME280;20319;28.466;-16.274;2022-07-23T02:04:26;99704.06;;;27.55;64.37
34031;BME280;20319;28.466;-16.274;2022-07-23T02:06:52;99688.34;;;27.51;64.67
34031;BME280;20319;28.466;-16.274;2022-07-23T02:09:18;99700.72;;;27.43;64.98
34031;BME280;20319;28.466;-16.274;2022-07-23T02:11:44;99700.44;;;27.45;65.18
34031;BME280;20319;28.466;-16.274;2022-07-23T02:14:09;99693.56;;;27.47;64.83
34031;BME280;20319;28.466;-16.274;2022-07-23T02:16:35;99708.47;;;27.51;64.92
34031;BME280;20319;28.466;-16.274;2022-07-23T02:19:01;99694.13;;;27.49;65.31
34031;BME280;20319;28.466;-16.274;2022-07-23T02:21:33;99694.09;;;27.44;65.23
34031;BME280;20319;28.466;-16.274;2022-07-23T02:23:58;99694.66;;;27.46;64.91
34031;BME280;20319;28.466;-16.274;2022-07-23T02:26:24;99697.13;;;27.43;65.31
34031;BME280;20319;28.466;-16.274;2022-07-23T02:28:50;99693.59;;;27.52;64.80
34031;BME280;20319;28.466;-16.274;2022-07-23T02:31:15;99672.91;;;27.45;64.80
34031;BME280;20319;28.466;-16.274;2022-07-23T02:33:41;99678.69;;;27.43;65.21
34031;BME280;20319;28.466;-16.274;2022-07-23T02:36:09;99681.97;;;27.40;65.34
34031;BME280;20319;28.466;-16.274;2022-07-23T02:38:34;99670.06;;;27.30;65.74
34031;BME280;20319;28.466;-16.274;2022-07-23T02:41:00;99690.19;;;27.35;65.82
34031;BME280;20319;28.466;-16.274;2022-07-23T02:43:26;99663.66;;;27.24;65.71
34031;BME280;20319;28.466;-16.274;2022-07-23T02:45:51;99691.03;;;27.41;65.55
34031;BME280;20319;28.466;-16.274;2022-07-23T02:48:17;99684.50;;;27.47;65.55
34031;BME280;20319;28.466;-16.274;2022-07-23T02:50:43;99698.50;;;27.45;65.36
34031;BME280;20319;28.466;-16.274;2022-07-23T02:53:08;99694.13;;;27.49;65.08
34031;BME280;20319;28.466;-16.274;2022-07-23T02:55:34;99677.56;;;27.44;64.95
34031;BME280;20319;28.466;-16.274;2022-07-23T02:58:00;99693.63;;;27.58;64.95
34031;BME280;20319;28.466;-16.274;2022-07-23T03:00:25;99693.94;;;27.61;65.00
34031;BME280;20319;28.466;-16.274;2022-07-23T03:02:51;99700.25;;;27.62;64.89
34031;BME280;20319;28.466;-16.274;2022-07-23T03:05:16;99701.63;;;27.59;64.72
34031;BME280;20319;28.466;-16.274;2022-07-23T03:07:42;99698.34;;;27.67;64.74
34031;BME280;20319;28.466;-16.274;2022-07-23T03:10:08;99697.78;;;27.65;64.83
34031;BME280;20319;28.466;-16.274;2022-07-23T03:12:34;99693.88;;;27.51;65.13
34031;BME280;20319;28.466;-16.274;2022-07-23T03:14:59;99693.63;;;27.58;64.67
34031;BME280;20319;28.466;-16.274;2022-07-23T03:17:25;99674.31;;;27.52;64.52
34031;BME280;20319;28.466;-16.274;2022-07-23T03:19:50;99692.84;;;27.67;64.36
34031;BME280;20319;28.466;-16.274;2022-07-23T03:22:16;99690.66;;;27.69;64.47
34031;BME280;20319;28.466;-16.274;2022-07-23T03:24:42;99693.69;;;27.73;64.68
34031;BME280;20319;28.466;-16.274;2022-07-23T03:27:23;99683.22;;;27.75;64.39
34031;BME280;20319;28.466;-16.274;2022-07-23T03:29:50;99679.66;;;27.79;64.20
34031;BME280;20319;28.466;-16.274;2022-07-23T03:32:15;99677.19;;;27.78;64.30
34031;BME280;20319;28.466;-16.274;2022-07-23T03:34:48;99670.03;;;27.77;63.95
34031;BME280;20319;28.466;-16.274;2022-07-23T03:37:14;99677.22;;;27.83;63.79
34031;BME280;20319;28.466;-16.274;2022-07-23T03:39:40;99674.44;;;27.78;63.93
34031;BME280;20319;28.466;-16.274;2022-07-23T03:42:06;99660.09;;;27.71;64.29
34031;BME280;20319;28.466;-16.274;2022-07-23T03:44:32;99667.50;;;27.65;64.63
34031;BME280;20319;28.466;-16.274;2022-07-23T03:46:58;99655.94;;;27.68;64.60
34031;BME280;20319;28.466;-16.274;2022-07-23T03:49:24;99669.47;;;27.75;64.37
34031;BME280;20319;28.466;-16.274;2022-07-23T03:51:49;99662.56;;;27.72;64.25
34031;BME280;20319;28.466;-16.274;2022-07-23T03:54:15;99675.56;;;27.82;64.25
34031;BME280;20319;28.466;-16.274;2022-07-23T03:56:42;99677.78;;;27.85;64.25
34031;BME280;20319;28.466;-16.274;2022-07-23T03:59:08;99671.44;;;27.84;64.14
34031;BME280;20319;28.466;-16.274;2022-07-23T04:01:34;99665.91;;;27.84;64.09
34031;BME280;20319;28.466;-16.274;2022-07-23T04:04:01;99664.56;;;27.87;64.46
34031;BME280;20319;28.466;-16.274;2022-07-23T04:06:27;99640.81;;;27.81;64.47
34031;BME280;20319;28.466;-16.274;2022-07-23T04:08:53;99659.56;;;27.84;64.74
34031;BME280;20319;28.466;-16.274;2022-07-23T04:11:18;99662.03;;;27.75;64.92
34031;BME280;20319;28.466;-16.274;2022-07-23T04:13:44;99646.03;;;27.72;64.88
34031;BME280;20319;28.466;-16.274;2022-07-23T04:16:10;99628.09;;;27.65;64.89
34031;BME280;20319;28.466;-16.274;2022-07-23T04:18:35;99637.19;;;27.65;65.33
34031;BME280;20319;28.466;-16.274;2022-07-23T04:21:01;99629.13;;;27.53;65.66
34031;BME280;20319;28.466;-16.274;2022-07-23T04:23:26;99628.31;;;27.48;65.56
34031;BME280;20319;28.466;-16.274;2022-07-23T04:25:52;99645.41;;;27.50;65.53
34031;BME280;20319;28.466;-16.274;2022-07-23T04:28:18;99647.88;;;27.51;65.54
34031;BME280;20319;28.466;-16.274;2022-07-23T04:30:44;99642.63;;;27.55;65.45
34031;BME280;20319;28.466;-16.274;2022-07-23T04:33:09;99651.78;;;27.61;65.42
34031;BME280;20319;28.466;-16.274;2022-07-23T04:35:36;99650.66;;;27.62;65.52
34031;BME280;20319;28.466;-16.274;2022-07-23T04:38:02;99655.38;;;27.61;65.45
34031;BME280;20319;28.466;-16.274;2022-07-23T04:40:29;99656.69;;;27.53;65.67
34031;BME280;20319;28.466;-16.274;2022-07-23T04:42:55;99661.66;;;27.51;65.94
34031;BME280;20319;28.466;-16.274;2022-07-23T04:45:21;99668.28;;;27.55;65.68
34031;BME280;20319;28.466;-16.274;2022-07-23T04:47:48;99653.66;;;27.50;65.27
34031;BME280;20319;28.466;-16.274;2022-07-23T04:50:14;99653.97;;;27.58;65.43
34031;BME280;20319;28.466;-16.274;2022-07-23T04:52:47;99648.47;;;27.64;65.48
34031;BME280;20319;28.466;-16.274;2022-07-23T04:55:13;99638.00;;;27.61;65.05
34031;BME280;20319;28.466;-16.274;2022-07-23T04:57:39;99646.03;;;27.72;65.18
34031;BME280;20319;28.466;-16.274;2022-07-23T05:00:05;99623.72;;;27.69;65.11
34031;BME280;20319;28.466;-16.274;2022-07-23T05:02:31;99630.31;;;27.73;65.34
34031;BME280;20319;28.466;-16.274;2022-07-23T05:04:57;99610.72;;;27.59;65.44
34031;BME280;20319;28.466;-16.274;2022-07-23T05:07:22;99616.25;;;27.64;65.50
34031;BME280;20319;28.466;-16.274;2022-07-23T05:09:48;99614.31;;;27.65;65.64
34031;BME280;20319;28.466;-16.274;2022-07-23T05:12:14;99613.22;;;27.61;65.72
34031;BME280;20319;28.466;-16.274;2022-07-23T05:14:39;99625.91;;;27.67;65.56
34031;BME280;20319;28.466;-16.274;2022-07-23T05:17:08;99625.63;;;27.68;65.30
34031;BME280;20319;28.466;-16.274;2022-07-23T05:19:34;99628.09;;;27.70;64.81
34031;BME280;20319;28.466;-16.274;2022-07-23T05:22:00;99617.63;;;27.67;65.06
34031;BME280;20319;28.466;-16.274;2022-07-23T05:24:26;99624.28;;;27.71;65.17
34031;BME280;20319;28.466;-16.274;2022-07-23T05:26:52;99608.28;;;27.68;65.18
34031;BME280;20319;28.466;-16.274;2022-07-23T05:29:18;99618.75;;;27.66;65.57
34031;BME280;20319;28.466;-16.274;2022-07-23T05:31:43;99601.63;;;27.58;65.97
34031;BME280;20319;28.466;-16.274;2022-07-23T05:34:09;99609.31;;;27.51;66.27
34031;BME280;20319;28.466;-16.274;2022-07-23T05:36:35;99602.13;;;27.50;66.47
34031;BME280;20319;28.466;-16.274;2022-07-23T05:39:01;99592.50;;;27.48;66.36
34031;BME280;20319;28.466;-16.274;2022-07-23T05:41:27;99591.13;;;27.50;66.17
34031;BME280;20319;28.466;-16.274;2022-07-23T05:43:53;99587.03;;;27.53;66.04
34031;BME280;20319;28.466;-16.274;2022-07-23T05:46:18;99607.09;;;27.53;66.24
34031;BME280;20319;28.466;-16.274;2022-07-23T05:48:44;99615.91;;;27.50;66.11
34031;BME280;20319;28.466;-16.274;2022-07-23T05:51:21;99627.75;;;27.51;66.66
34031;BME280;20319;28.466;-16.274;2022-07-23T05:53:50;99629.94;;;27.39;67.42
34031;BME280;20319;28.466;-16.274;2022-07-23T05:56:17;99629.94;;;27.39;67.23
34031;BME280;20319;28.466;-16.274;2022-07-23T05:58:43;99631.84;;;27.38;67.58
34031;BME280;20319;28.466;-16.274;2022-07-23T06:01:09;99632.94;;;27.37;67.56
34031;BME280;20319;28.466;-16.274;2022-07-23T06:03:35;99616.41;;;27.32;67.35
34031;BME280;20319;28.466;-16.274;2022-07-23T06:06:00;99628.81;;;27.40;67.61
34031;BME280;20319;28.466;-16.274;2022-07-23T06:08:26;99630.72;;;27.39;67.25
34031;BME280;20319;28.466;-16.274;2022-07-23T06:10:52;99631.88;;;27.43;67.57
34031;BME280;20319;28.466;-16.274;2022-07-23T06:13:18;99601.44;;;27.23;67.98
34031;BME280;20319;28.466;-16.274;2022-07-23T06:15:47;99618.91;;;27.39;67.70
34031;BME280;20319;28.466;-16.274;2022-07-23T06:18:13;99613.41;;;27.39;67.67
34031;BME280;20319;28.466;-16.274;2022-07-23T06:20:39;99617.75;;;27.30;68.21
34031;BME280;20319;28.466;-16.274;2022-07-23T06:23:04;99618.00;;;27.28;67.93
34031;BME280;20319;28.466;-16.274;2022-07-23T06:25:30;99607.19;;;27.22;67.88
34031;BME280;20319;28.466;-16.274;2022-07-23T06:27:56;99618.84;;;27.29;67.79
34031;BME280;20319;28.466;-16.274;2022-07-23T06:30:21;99637.03;;;27.35;68.36
34031;BME280;20319;28.466;-16.274;2022-07-23T06:32:47;99639.81;;;27.35;67.82
34031;BME280;20319;28.466;-16.274;2022-07-23T06:35:16;99650.56;;;27.41;67.73
34031;BME280;20319;28.466;-16.274;2022-07-23T06:37:42;99666.00;;;27.42;67.97
34031;BME280;20319;28.466;-16.274;2022-07-23T06:40:09;99669.28;;;27.39;68.13
34031;BME280;20319;28.466;-16.274;2022-07-23T06:42:34;99649.41;;;27.27;67.64
34031;BME280;20319;28.466;-16.274;2022-07-23T06:45:06;99686.66;;;27.40;68.30
34031;BME280;20319;28.466;-16.274;2022-07-23T06:47:32;99695.19;;;27.38;68.40
34031;BME280;20319;28.466;-16.274;2022-07-23T06:49:58;99689.41;;;27.40;67.99
34031;BME280;20319;28.466;-16.274;2022-07-23T06:52:23;99697.44;;;27.46;68.08
34031;BME280;20319;28.466;-16.274;2022-07-23T06:54:49;99701.56;;;27.49;67.65
34031;BME280;20319;28.466;-16.274;2022-07-23T06:57:15;99713.41;;;27.49;67.65
34031;BME280;20319;28.466;-16.274;2022-07-23T06:59:41;99698.00;;;27.53;67.01
34031;BME280;20319;28.466;-16.274;2022-07-23T07:02:07;99684.75;;;27.50;67.38
34031;BME280;20319;28.466;-16.274;2022-07-23T07:04:34;99689.72;;;27.48;67.79
34031;BME280;20319;28.466;-16.274;2022-07-23T07:06:59;99684.13;;;27.33;68.05
34031;BME280;20319;28.466;-16.274;2022-07-23T07:09:25;99708.41;;;27.41;67.45
34031;BME280;20319;28.466;-16.274;2022-07-23T07:11:51;99709.53;;;27.45;67.44
34031;BME280;20319;28.466;-16.274;2022-07-23T07:14:17;99709.53;;;27.45;67.88
34031;BME280;20319;28.466;-16.274;2022-07-23T07:16:42;99732.16;;;27.52;67.38
34031;BME280;20319;28.466;-16.274;2022-07-23T07:19:08;99723.34;;;27.55;67.20
34031;BME280;20319;28.466;-16.274;2022-07-23T07:21:34;99707.09;;;27.54;67.22
34031;BME280;20319;28.466;-16.274;2022-07-23T07:24:00;99731.09;;;27.58;67.25
34031;BME280;20319;28.466;-16.274;2022-07-23T07:26:26;99724.50;;;27.60;67.26
34031;BME280;20319;28.466;-16.274;2022-07-23T07:28:59;99720.09;;;27.64;67.31
34031;BME280;20319;28.466;-16.274;2022-07-23T07:31:25;99727.28;;;27.70;67.40
34031;BME280;20319;28.466;-16.274;2022-07-23T07:33:50;99717.94;;;27.71;67.34
34031;BME280;20319;28.466;-16.274;2022-07-23T07:36:16;99717.13;;;27.75;67.10
34031;BME280;20319;28.466;-16.274;2022-07-23T07:38:42;99730.66;;;27.77;67.18
34031;BME280;20319;28.466;-16.274;2022-07-23T07:41:07;99715.47;;;27.74;67.59
34031;BME280;20319;28.466;-16.274;2022-07-23T07:43:36;99712.19;;;27.82;67.19
34031;BME280;20319;28.466;-16.274;2022-07-23T07:46:03;99695.16;;;27.85;67.45
34031;BME280;20319;28.466;-16.274;2022-07-23T07:48:28;99696.28;;;27.89;67.11
34031;BME280;20319;28.466;-16.274;2022-07-23T07:50:54;99715.91;;;28.03;67.02
34031;BME280;20319;28.466;-16.274;2022-07-23T07:53:20;99719.47;;;28.03;66.98
34031;BME280;20319;28.466;-16.274;2022-07-23T07:55:46;99716.97;;;27.97;66.83
34031;BME280;20319;28.466;-16.274;2022-07-23T07:58:12;99727.72;;;27.98;67.20
34031;BME280;20319;28.466;-16.274;2022-07-23T08:00:38;99740.16;;;28.01;67.04
34031;BME280;20319;28.466;-16.274;2022-07-23T08:03:05;99749.78;;;27.98;67.59
34031;BME280;20319;28.466;-16.274;2022-07-23T08:05:30;99768.25;;;27.98;67.72
34031;BME280;20319;28.466;-16.274;2022-07-23T08:07:58;99772.38;;;27.95;67.63
34031;BME280;20319;28.466;-16.274;2022-07-23T08:10:25;99755.53;;;27.92;67.96
34031;BME280;20319;28.466;-16.274;2022-07-23T08:12:53;99775.44;;;27.99;68.00
34031;BME280;20319;28.466;-16.274;2022-07-23T08:15:22;99791.41;;;27.97;68.12
34031;BME280;20319;28.466;-16.274;2022-07-23T08:17:49;99801.88;;;28.00;68.20
34031;BME280;20319;28.466;-16.274;2022-07-23T08:20:16;99792.00;;;28.04;68.48
34031;BME280;20319;28.466;-16.274;2022-07-23T08:22:52;99791.72;;;28.05;68.08
34031;BME280;20319;28.466;-16.274;2022-07-23T08:25:43;99784.56;;;28.09;68.51
34031;BME280;20319;28.466;-16.274;2022-07-23T08:28:10;99788.50;;;28.23;68.25
34031;BME280;20319;28.466;-16.274;2022-07-23T08:30:36;99797.63;;;28.34;68.02
34031;BME280;20319;28.466;-16.274;2022-07-23T08:35:32;99816.50;;;28.52;67.72
34031;BME280;20319;28.466;-16.274;2022-07-23T08:38:00;99831.97;;;28.63;67.72
34031;BME280;20319;28.466;-16.274;2022-07-23T08:40:27;99822.91;;;28.72;66.45
34031;BME280;20319;28.466;-16.274;2022-07-23T08:42:54;99818.22;;;28.83;66.79
34031;BME280;20319;28.466;-16.274;2022-07-23T08:45:22;99828.41;;;28.82;66.41
34031;BME280;20319;28.466;-16.274;2022-07-23T08:47:50;99815.75;;;28.86;65.86
34031;BME280;20319;28.466;-16.274;2022-07-23T08:50:16;99819.91;;;28.99;65.69
34031;BME280;20319;28.466;-16.274;2022-07-23T08:52:41;99828.22;;;29.14;65.37
34031;BME280;20319;28.466;-16.274;2022-07-23T08:55:08;99829.06;;;29.25;65.06
34031;BME280;20319;28.466;-16.274;2022-07-23T08:57:34;99823.28;;;29.31;64.70
34031;BME280;20319;28.466;-16.274;2022-07-23T08:59:59;99815.28;;;29.35;64.32
34031;BME280;20319;28.466;-16.274;2022-07-23T09:02:25;99811.97;;;29.38;64.00
34031;BME280;20319;28.466;-16.274;2022-07-23T09:04:51;99818.28;;;29.48;63.68
34031;BME280;20319;28.466;-16.274;2022-07-23T09:07:16;99808.88;;;29.49;63.54
34031;BME280;20319;28.466;-16.274;2022-07-23T09:09:42;99822.44;;;29.56;63.75
34031;BME280;20319;28.466;-16.274;2022-07-23T09:12:09;99816.66;;;29.67;63.42
34031;BME280;20319;28.466;-16.274;2022-07-23T09:17:28;99814.41;;;29.79;63.04
34031;BME280;20319;28.466;-16.274;2022-07-23T09:20:15;99827.38;;;29.94;62.32
34031;BME280;20319;28.466;-16.274;2022-07-23T09:22:45;99821.25;;;30.02;62.49
34031;BME280;20319;28.466;-16.274;2022-07-23T09:25:16;99836.47;;;30.04;62.18
34031;BME280;20319;28.466;-16.274;2022-07-23T09:27:55;99831.47;;;30.06;62.18
34031;BME280;20319;28.466;-16.274;2022-07-23T09:30:23;99843.09;;;30.13;61.92
34031;BME280;20319;28.466;-16.274;2022-07-23T09:33:09;99847.50;;;30.14;61.96
34031;BME280;20319;28.466;-16.274;2022-07-23T09:35:47;99852.47;;;30.22;61.90
34031;BME280;20319;28.466;-16.274;2022-07-23T09:38:14;99846.13;;;30.27;61.70
34031;BME280;20319;28.466;-16.274;2022-07-23T09:40:40;99853.56;;;30.32;61.48
34031;BME280;20319;28.466;-16.274;2022-07-23T09:43:06;99827.56;;;30.33;61.48
34031;BME280;20319;28.466;-16.274;2022-07-23T09:45:32;99821.47;;;30.36;61.11
34031;BME280;20319;28.466;-16.274;2022-07-23T09:48:16;99824.50;;;30.39;61.17
34031;BME280;20319;28.466;-16.274;2022-07-23T09:50:43;99829.44;;;30.47;60.74
34031;BME280;20319;28.466;-16.274;2022-07-23T09:53:10;99830.00;;;30.49;60.72
34031;BME280;20319;28.466;-16.274;2022-07-23T09:55:49;99838.28;;;30.49;61.09
34031;BME280;20319;28.466;-16.274;2022-07-23T09:58:16;99852.41;;;30.48;60.94
34031;BME280;20319;28.466;-16.274;2022-07-23T10:00:44;99849.66;;;30.48;60.84
34031;BME280;20319;28.466;-16.274;2022-07-23T10:03:11;99849.94;;;30.46;60.96
34031;BME280;20319;28.466;-16.274;2022-07-23T10:05:40;99859.34;;;30.40;61.07
34031;BME280;20319;28.466;-16.274;2022-07-23T10:08:11;99883.38;;;30.45;60.98
34031;BME280;20319;28.466;-16.274;2022-07-23T10:10:40;99872.31;;;30.45;61.18
34031;BME280;20319;28.466;-16.274;2022-07-23T10:13:06;99887.53;;;30.47;61.12
34031;BME280;20319;28.466;-16.274;2022-07-23T10:15:51;99875.41;;;30.38;60.91
34031;BME280;20319;28.466;-16.274;2022-07-23T10:18:17;99885.91;;;30.41;61.00
34031;BME280;20319;28.466;-16.274;2022-07-23T10:20:43;99886.78;;;30.26;61.08
34031;BME280;20319;28.466;-16.274;2022-07-23T10:23:18;99872.97;;;30.06;61.69
34031;BME280;20319;28.466;-16.274;2022-07-23T10:36:59;99838.38;;;30.24;61.67
34031;BME280;20319;28.466;-16.274;2022-07-23T10:39:33;99854.38;;;30.37;61.87
34031;BME280;20319;28.466;-16.274;2022-07-23T10:42:15;99855.47;;;30.41;61.33
34031;BME280;20319;28.466;-16.274;2022-07-23T10:44:43;99859.59;;;30.44;61.15
34031;BME280;20319;28.466;-16.274;2022-07-23T10:47:10;99834.44;;;30.40;61.22
34031;BME280;20319;28.466;-16.274;2022-07-23T10:49:41;99853.50;;;30.52;61.17
34031;BME280;20319;28.466;-16.274;2022-07-23T10:57:28;99845.16;;;30.57;60.91
34031;BME280;20319;28.466;-16.274;2022-07-23T11:02:32;99826.03;;;30.65;60.90
34031;BME280;20319;28.466;-16.274;2022-07-23T11:05:04;99832.94;;;30.63;60.83
34031;BME280;20319;28.466;-16.274;2022-07-23T11:07:34;99821.28;;;30.71;60.82
34031;BME280;20319;28.466;-16.274;2022-07-23T11:10:00;99812.09;;;30.85;60.60
34031;BME280;20319;28.466;-16.274;2022-07-23T11:15:09;99802.50;;;31.11;60.07
34031;BME280;20319;28.466;-16.274;2022-07-23T11:20:19;99811.44;;;31.37;59.01
34031;BME280;20319;28.466;-16.274;2022-07-23T11:25:29;99800.13;;;31.33;59.28
34031;BME280;20319;28.466;-16.274;2022-07-23T11:28:11;99792.63;;;31.29;59.44
34031;BME280;20319;28.466;-16.274;2022-07-23T11:30:39;99801.63;;;31.16;59.98
34031;BME280;20319;28.466;-16.274;2022-07-23T11:35:39;99790.25;;;31.17;59.68
34031;BME280;20319;28.466;-16.274;2022-07-23T11:38:21;99784.97;;;31.21;60.10
34031;BME280;20319;28.466;-16.274;2022-07-23T11:40:49;99795.41;;;31.29;59.52
34031;BME280;20319;28.466;-16.274;2022-07-23T11:43:15;99791.00;;;31.28;59.23
34031;BME280;20319;28.466;-16.274;2022-07-23T11:45:48;99796.25;;;31.29;59.46
34031;BME280;20319;28.466;-16.274;2022-07-23T11:48:19;99791.81;;;31.28;59.24
34031;BME280;20319;28.466;-16.274;2022-07-23T11:50:45;99791.91;;;31.18;59.39
34031;BME280;20319;28.466;-16.274;2022-07-23T11:53:11;99794.97;;;31.17;59.56
34031;BME280;20319;28.466;-16.274;2022-07-23T11:55:37;99797.94;;;31.25;59.56
34031;BME280;20319;28.466;-16.274;2022-07-23T11:58:03;99798.47;;;31.32;59.28
34031;BME280;20319;28.466;-16.274;2022-07-23T12:00:31;99810.88;;;31.40;59.41
34031;BME280;20319;28.466;-16.274;2022-07-23T12:03:00;99808.63;;;31.42;59.15
34031;BME280;20319;28.466;-16.274;2022-07-23T12:05:34;99802.84;;;31.38;58.76
34031;BME280;20319;28.466;-16.274;2022-07-23T12:08:02;99789.19;;;31.47;58.97
34031;BME280;20319;28.466;-16.274;2022-07-23T12:13:04;99768.94;;;31.46;58.88
34031;BME280;20319;28.466;-16.274;2022-07-23T12:15:33;99787.44;;;31.56;58.67
34031;BME280;20319;28.466;-16.274;2022-07-23T12:18:02;99785.41;;;31.66;58.72
34031;BME280;20319;28.466;-16.274;2022-07-23T12:20:31;99801.06;;;31.81;58.58
34031;BME280;20319;28.466;-16.274;2022-07-23T12:23:00;99819.31;;;31.87;58.63
34031;BME280;20319;28.466;-16.274;2022-07-23T12:25:28;99839.03;;;31.86;58.48
34031;BME280;20319;28.466;-16.274;2022-07-23T12:28:16;99850.72;;;31.78;58.44
34031;BME280;20319;28.466;-16.274;2022-07-23T12:33:29;99848.00;;;31.39;59.05
34031;BME280;20319;28.466;-16.274;2022-07-23T12:35:57;99849.50;;;31.21;59.62
34031;BME280;20319;28.466;-16.274;2022-07-23T12:38:25;99862.03;;;31.14;59.87
34031;BME280;20319;28.466;-16.274;2022-07-23T12:40:58;99860.72;;;31.01;60.11
34031;BME280;20319;28.466;-16.274;2022-07-23T12:43:36;99867.09;;;31.02;60.13
34031;BME280;20319;28.466;-16.274;2022-07-23T12:48:39;99883.19;;;31.00;60.79
34031;BME280;20319;28.466;-16.274;2022-07-23T12:51:17;99884.34;;;30.89;60.69
34031;BME280;20319;28.466;-16.274;2022-07-23T12:53:47;99893.28;;;30.66;61.14
34031;BME280;20319;28.466;-16.274;2022-07-23T12:56:19;99885.91;;;30.46;61.60
34031;BME280;20319;28.466;-16.274;2022-07-23T12:58:55;99888.66;;;30.46;61.94
34031;BME280;20319;28.466;-16.274;2022-07-23T13:04:16;99875.44;;;30.18;62.69
34031;BME280;20319;28.466;-16.274;2022-07-23T13:06:50;99869.66;;;30.04;62.65
34031;BME280;20319;28.466;-16.274;2022-07-23T13:09:24;99873.00;;;30.01;63.48
34031;BME280;20319;28.466;-16.274;2022-07-23T13:11:51;99865.28;;;29.88;63.38
34031;BME280;20319;28.466;-16.274;2022-07-23T13:14:18;99871.38;;;29.85;63.86
34031;BME280;20319;28.466;-16.274;2022-07-23T13:16:45;99867.47;;;29.96;63.38
34031;BME280;20319;28.466;-16.274;2022-07-23T13:19:11;99874.88;;;30.16;62.99
34031;BME280;20319;28.466;-16.274;2022-07-23T13:21:37;99852.47;;;30.33;62.91
34031;BME280;20319;28.466;-16.274;2022-07-23T13:24:07;99841.81;;;30.60;61.87
34031;BME280;20319;28.466;-16.274;2022-07-23T13:26:34;99847.81;;;30.87;61.53